Terminal Aerodrome Forecast
Issued by NWS

Home | Current Version | Previous Version | Text Only | Print | Product List | Glossary Off
Versions: 1 2 3 4 5 6 7 8 9 10 11 12 13 14 15 16

493
FTUS42 KTBW 282320
TAFPIE
TAF
KPIE 282320Z 2900/2924 28007KT P6SM FEW040 BKN250
     FM290300 28009KT P6SM FEW250
     FM291400 05005KT P6SM FEW030 SCT250
     FM291700 28007KT P6SM VCTS SCT035CB BKN250=

USA.gov is the U.S. government's official web portal to all federal, state and local government web resources and services.